sensor_id;sensor_type;location;lat;lon;timestamp;pressure;altitude;pressure_sealevel;temperature
82638;BMP280;72318;36.628;-121.932;2024-01-15T00:02:16;101642.16;;;14.24
82638;BMP280;72318;36.628;-121.932;2024-01-15T00:04:42;101641.28;;;14.02
82638;BMP280;72318;36.628;-121.932;2024-01-15T00:07:09;101635.44;;;13.90
82638;BMP280;72318;36.628;-121.932;2024-01-15T00:09:35;101643.44;;;13.90
82638;BMP280;72318;36.628;-121.932;2024-01-15T00:12:02;101638.00;;;13.79
82638;BMP280;72318;36.628;-121.932;2024-01-15T00:14:28;101641.47;;;13.87
82638;BMP280;72318;36.628;-121.932;2024-01-15T00:16:54;101636.78;;;13.70
82638;BMP280;72318;36.628;-121.932;2024-01-15T00:19:21;101641.41;;;13.76
82638;BMP280;72318;36.628;-121.932;2024-01-15T00:21:48;101638.88;;;13.50
82638;BMP280;72318;36.628;-121.932;2024-01-15T00:24:14;101645.25;;;13.42
82638;BMP280;72318;36.628;-121.932;2024-01-15T00:26:40;101647.16;;;13.42
82638;BMP280;72318;36.628;-121.932;2024-01-15T00:29:09;101638.09;;;13.46
82638;BMP280;72318;36.628;-121.932;2024-01-15T00:31:36;101642.75;;;13.56
82638;BMP280;72318;36.628;-121.932;2024-01-15T00:34:02;101645.47;;;13.60
82638;BMP280;72318;36.628;-121.932;2024-01-15T00:36:28;101654.69;;;13.73
82638;BMP280;72318;36.628;-121.932;2024-01-15T00:38:54;101651.28;;;13.72
82638;BMP280;72318;36.628;-121.932;2024-01-15T00:41:21;101660.47;;;13.78
82638;BMP280;72318;36.628;-121.932;2024-01-15T00:43:47;101655.19;;;13.49
82638;BMP280;72318;36.628;-121.932;2024-01-15T00:46:21;101665.47;;;13.47
82638;BMP280;72318;36.628;-121.932;2024-01-15T00:48:47;101664.28;;;13.44
82638;BMP280;72318;36.628;-121.932;2024-01-15T00:51:14;101659.94;;;13.29
82638;BMP280;72318;36.628;-121.932;2024-01-15T00:53:40;101655.13;;;13.38
82638;BMP280;72318;36.628;-121.932;2024-01-15T00:56:06;101654.50;;;13.52
82638;BMP280;72318;36.628;-121.932;2024-01-15T00:58:32;101650.00;;;13.27
82638;BMP280;72318;36.628;-121.932;2024-01-15T01:00:58;101663.81;;;13.35
82638;BMP280;72318;36.628;-121.932;2024-01-15T01:03:25;101666.38;;;13.25
82638;BMP280;72318;36.628;-121.932;2024-01-15T01:05:51;101654.72;;;13.04
82638;BMP280;72318;36.628;-121.932;2024-01-15T01:08:17;101662.44;;;13.16
82638;BMP280;72318;36.628;-121.932;2024-01-15T01:10:43;101664.09;;;12.98
82638;BMP280;72318;36.628;-121.932;2024-01-15T01:13:10;101656.72;;;12.84
82638;BMP280;72318;36.628;-121.932;2024-01-15T01:15:36;101677.34;;;13.20
82638;BMP280;72318;36.628;-121.932;2024-01-15T01:18:03;101675.88;;;13.26
82638;BMP280;72318;36.628;-121.932;2024-01-15T01:20:30;101678.00;;;13.14
82638;BMP280;72318;36.628;-121.932;2024-01-15T01:22:56;101677.38;;;13.24
82638;BMP280;72318;36.628;-121.932;2024-01-15T01:25:22;101681.91;;;12.90
82638;BMP280;72318;36.628;-121.932;2024-01-15T01:27:48;101677.06;;;12.99
82638;BMP280;72318;36.628;-121.932;2024-01-15T01:30:14;101679.28;;;12.94
82638;BMP280;72318;36.628;-121.932;2024-01-15T01:32:40;101681.03;;;13.12
82638;BMP280;72318;36.628;-121.932;2024-01-15T01:35:07;101686.00;;;13.14
82638;BMP280;72318;36.628;-121.932;2024-01-15T01:37:33;101693.00;;;13.25
82638;BMP280;72318;36.628;-121.932;2024-01-15T01:40:00;101691.31;;;13.43
82638;BMP280;72318;36.628;-121.932;2024-01-15T01:42:26;101692.66;;;13.30
82638;BMP280;72318;36.628;-121.932;2024-01-15T01:44:52;101699.19;;;13.36
82638;BMP280;72318;36.628;-121.932;2024-01-15T01:47:18;101706.16;;;13.44
82638;BMP280;72318;36.628;-121.932;2024-01-15T01:49:46;101704.47;;;13.29
82638;BMP280;72318;36.628;-121.932;2024-01-15T01:52:13;101703.66;;;13.25
82638;BMP280;72318;36.628;-121.932;2024-01-15T01:54:40;101706.22;;;13.18
82638;BMP280;72318;36.628;-121.932;2024-01-15T01:57:07;101713.59;;;13.31
82638;BMP280;72318;36.628;-121.932;2024-01-15T01:59:34;101697.94;;;13.27
82638;BMP280;72318;36.628;-121.932;2024-01-15T02:02:02;101702.78;;;13.18
82638;BMP280;72318;36.628;-121.932;2024-01-15T02:04:30;101708.13;;;13.18
82638;BMP280;72318;36.628;-121.932;2024-01-15T02:06:57;101705.81;;;13.16
82638;BMP280;72318;36.628;-121.932;2024-01-15T02:09:23;101707.94;;;13.33
82638;BMP280;72318;36.628;-121.932;2024-01-15T02:11:49;101705.44;;;13.18
82638;BMP280;72318;36.628;-121.932;2024-01-15T02:14:16;101702.06;;;13.21
82638;BMP280;72318;36.628;-121.932;2024-01-15T02:16:42;101711.53;;;13.18
82638;BMP280;72318;36.628;-121.932;2024-01-15T02:19:15;101709.38;;;13.27
82638;BMP280;72318;36.628;-121.932;2024-01-15T02:21:42;101700.97;;;13.25
82638;BMP280;72318;36.628;-121.932;2024-01-15T02:24:08;101699.31;;;13.14
82638;BMP280;72318;36.628;-121.932;2024-01-15T02:26:35;101705.44;;;13.47
82638;BMP280;72318;36.628;-121.932;2024-01-15T02:29:02;101698.75;;;13.01
82638;BMP280;72318;36.628;-121.932;2024-01-15T02:31:29;101702.91;;;13.28
82638;BMP280;72318;36.628;-121.932;2024-01-15T02:33:55;101698.13;;;13.11
82638;BMP280;72318;36.628;-121.932;2024-01-15T02:36:21;101696.53;;;13.07
82638;BMP280;72318;36.628;-121.932;2024-01-15T02:38:47;101704.19;;;13.08
82638;BMP280;72318;36.628;-121.932;2024-01-15T02:41:14;101703.84;;;13.10
82638;BMP280;72318;36.628;-121.932;2024-01-15T02:43:40;101694.25;;;13.05
82638;BMP280;72318;36.628;-121.932;2024-01-15T02:46:14;101697.63;;;13.31
82638;BMP280;72318;36.628;-121.932;2024-01-15T02:48:41;101701.13;;;13.06
82638;BMP280;72318;36.628;-121.932;2024-01-15T02:51:08;101694.81;;;13.18
82638;BMP280;72318;36.628;-121.932;2024-01-15T02:53:36;101685.44;;;13.30
82638;BMP280;72318;36.628;-121.932;2024-01-15T02:56:03;101693.38;;;12.98
82638;BMP280;72318;36.628;-121.932;2024-01-15T02:58:29;101697.00;;;13.09
82638;BMP280;72318;36.628;-121.932;2024-01-15T03:00:55;101696.91;;;13.05
82638;BMP280;72318;36.628;-121.932;2024-01-15T03:03:22;101677.22;;;13.10
82638;BMP280;72318;36.628;-121.932;2024-01-15T03:05:48;101683.13;;;12.96
82638;BMP280;72318;36.628;-121.932;2024-01-15T03:08:14;101694.41;;;13.16
82638;BMP280;72318;36.628;-121.932;2024-01-15T03:10:40;101693.03;;;12.99
82638;BMP280;72318;36.628;-121.932;2024-01-15T03:13:06;101698.53;;;13.10
82638;BMP280;72318;36.628;-121.932;2024-01-15T03:15:32;101705.78;;;12.87
82638;BMP280;72318;36.628;-121.932;2024-01-15T03:17:59;101693.03;;;12.99
82638;BMP280;72318;36.628;-121.932;2024-01-15T03:20:25;101700.66;;;13.01
82638;BMP280;72318;36.628;-121.932;2024-01-15T03:22:51;101713.47;;;12.92
82638;BMP280;72318;36.628;-121.932;2024-01-15T03:25:17;101710.50;;;12.97
82638;BMP280;72318;36.628;-121.932;2024-01-15T03:27:43;101706.97;;;12.89
82638;BMP280;72318;36.628;-121.932;2024-01-15T03:30:10;101707.53;;;13.02
82638;BMP280;72318;36.628;-121.932;2024-01-15T03:32:37;101699.03;;;12.93
82638;BMP280;72318;36.628;-121.932;2024-01-15T03:35:03;101706.44;;;13.06
82638;BMP280;72318;36.628;-121.932;2024-01-15T03:37:29;101698.66;;;12.91
82638;BMP280;72318;36.628;-121.932;2024-01-15T03:39:56;101711.84;;;12.84
82638;BMP280;72318;36.628;-121.932;2024-01-15T03:42:22;101693.34;;;12.91
82638;BMP280;72318;36.628;-121.932;2024-01-15T03:44:48;101696.69;;;12.88
82638;BMP280;72318;36.628;-121.932;2024-01-15T03:47:14;101706.56;;;12.87
82638;BMP280;72318;36.628;-121.932;2024-01-15T03:49:41;101701.75;;;12.96
82638;BMP280;72318;36.628;-121.932;2024-01-15T03:52:07;101686.34;;;13.09
82638;BMP280;72318;36.628;-121.932;2024-01-15T03:54:33;101695.47;;;13.11
82638;BMP280;72318;36.628;-121.932;2024-01-15T03:56:59;101677.31;;;12.87
82638;BMP280;72318;36.628;-121.932;2024-01-15T03:59:26;101677.63;;;12.86
82638;BMP280;72318;36.628;-121.932;2024-01-15T04:01:52;101688.38;;;12.93
82638;BMP280;72318;36.628;-121.932;2024-01-15T04:04:19;101693.22;;;12.84
82638;BMP280;72318;36.628;-121.932;2024-01-15T04:06:45;101693.00;;;12.70
82638;BMP280;72318;36.628;-121.932;2024-01-15T04:09:14;101693.22;;;12.84
82638;BMP280;72318;36.628;-121.932;2024-01-15T04:11:40;101701.78;;;12.70
82638;BMP280;72318;36.628;-121.932;2024-01-15T04:14:07;101695.09;;;12.83
82638;BMP280;72318;36.628;-121.932;2024-01-15T04:16:33;101692.66;;;12.71
82638;BMP280;72318;36.628;-121.932;2024-01-15T04:18:59;101695.56;;;12.89
82638;BMP280;72318;36.628;-121.932;2024-01-15T04:21:25;101687.59;;;12.63
82638;BMP280;72318;36.628;-121.932;2024-01-15T04:23:51;101699.13;;;12.48
82638;BMP280;72318;36.628;-121.932;2024-01-15T04:26:18;101698.97;;;12.37
82638;BMP280;72318;36.628;-121.932;2024-01-15T04:28:44;101695.22;;;12.20
82638;BMP280;72318;36.628;-121.932;2024-01-15T04:31:21;101685.13;;;12.28
82638;BMP280;72318;36.628;-121.932;2024-01-15T04:33:47;101687.25;;;12.16
82638;BMP280;72318;36.628;-121.932;2024-01-15T04:36:13;101686.25;;;12.05
82638;BMP280;72318;36.628;-121.932;2024-01-15T04:38:40;101691.69;;;12.12
82638;BMP280;72318;36.628;-121.932;2024-01-15T04:41:09;101687.16;;;12.13
82638;BMP280;72318;36.628;-121.932;2024-01-15T04:43:35;101699.47;;;12.46
82638;BMP280;72318;36.628;-121.932;2024-01-15T04:46:01;101691.91;;;12.23
82638;BMP280;72318;36.628;-121.932;2024-01-15T04:48:29;101700.53;;;12.16
82638;BMP280;72318;36.628;-121.932;2024-01-15T04:50:55;101695.63;;;12.18
82638;BMP280;72318;36.628;-121.932;2024-01-15T04:53:21;101695.75;;;12.03
82638;BMP280;72318;36.628;-121.932;2024-01-15T04:55:48;101684.44;;;12.09
82638;BMP280;72318;36.628;-121.932;2024-01-15T04:58:14;101680.94;;;12.27
82638;BMP280;72318;36.628;-121.932;2024-01-15T05:00:40;101683.06;;;11.96
82638;BMP280;72318;36.628;-121.932;2024-01-15T05:03:06;101683.72;;;11.90
82638;BMP280;72318;36.628;-121.932;2024-01-15T05:05:32;101684.75;;;12.04
82638;BMP280;72318;36.628;-121.932;2024-01-15T05:07:59;101678.06;;;11.91
82638;BMP280;72318;36.628;-121.932;2024-01-15T05:10:25;101686.03;;;11.91
82638;BMP280;72318;36.628;-121.932;2024-01-15T05:12:51;101687.78;;;12.03
82638;BMP280;72318;36.628;-121.932;2024-01-15T05:15:17;101689.50;;;11.95
82638;BMP280;72318;36.628;-121.932;2024-01-15T05:17:43;101695.81;;;11.87
82638;BMP280;72318;36.628;-121.932;2024-01-15T05:20:16;101698.28;;;11.77
82638;BMP280;72318;36.628;-121.932;2024-01-15T05:22:42;101704.66;;;11.72
82638;BMP280;72318;36.628;-121.932;2024-01-15T05:25:08;101693.88;;;11.65
82638;BMP280;72318;36.628;-121.932;2024-01-15T05:27:34;101697.31;;;11.66
82638;BMP280;72318;36.628;-121.932;2024-01-15T05:30:01;101703.31;;;11.63
82638;BMP280;72318;36.628;-121.932;2024-01-15T05:32:27;101698.44;;;11.46
82638;BMP280;72318;36.628;-121.932;2024-01-15T05:34:53;101708.28;;;11.45
82638;BMP280;72318;36.628;-121.932;2024-01-15T05:37:19;101710.38;;;11.55
82638;BMP280;72318;36.628;-121.932;2024-01-15T05:39:45;101704.81;;;11.60
82638;BMP280;72318;36.628;-121.932;2024-01-15T05:42:12;101703.53;;;11.73
82638;BMP280;72318;36.628;-121.932;2024-01-15T05:44:38;101706.06;;;11.47
82638;BMP280;72318;36.628;-121.932;2024-01-15T05:47:04;101716.41;;;11.52
82638;BMP280;72318;36.628;-121.932;2024-01-15T05:49:30;101722.78;;;11.48
82638;BMP280;72318;36.628;-121.932;2024-01-15T05:51:56;101718.75;;;11.57
82638;BMP280;72318;36.628;-121.932;2024-01-15T05:54:23;101721.31;;;11.35
82638;BMP280;72318;36.628;-121.932;2024-01-15T05:56:49;101719.88;;;11.37
82638;BMP280;72318;36.628;-121.932;2024-01-15T05:59:15;101724.94;;;11.61
82638;BMP280;72318;36.628;-121.932;2024-01-15T06:01:41;101722.38;;;11.49
82638;BMP280;72318;36.628;-121.932;2024-01-15T06:04:08;101726.72;;;11.38
82638;BMP280;72318;36.628;-121.932;2024-01-15T06:06:34;101719.16;;;11.21
82638;BMP280;72318;36.628;-121.932;2024-01-15T06:09:00;101715.56;;;11.14
82638;BMP280;72318;36.628;-121.932;2024-01-15T06:11:31;101727.69;;;11.30
82638;BMP280;72318;36.628;-121.932;2024-01-15T06:13:58;101720.41;;;11.27
82638;BMP280;72318;36.628;-121.932;2024-01-15T06:16:26;101723.63;;;11.18
82638;BMP280;72318;36.628;-121.932;2024-01-15T06:18:52;101722.72;;;11.29
82638;BMP280;72318;36.628;-121.932;2024-01-15T06:21:18;101715.53;;;11.29
82638;BMP280;72318;36.628;-121.932;2024-01-15T06:23:44;101729.34;;;11.19
82638;BMP280;72318;36.628;-121.932;2024-01-15T06:26:14;101721.34;;;11.01
82638;BMP280;72318;36.628;-121.932;2024-01-15T06:28:40;101731.44;;;11.11
82638;BMP280;72318;36.628;-121.932;2024-01-15T06:31:07;101742.91;;;11.15
82638;BMP280;72318;36.628;-121.932;2024-01-15T06:33:33;101743.78;;;11.03
82638;BMP280;72318;36.628;-121.932;2024-01-15T06:35:59;101750.31;;;11.24
82638;BMP280;72318;36.628;-121.932;2024-01-15T06:38:26;101744.06;;;11.17
82638;BMP280;72318;36.628;-121.932;2024-01-15T06:40:52;101741.94;;;11.07
82638;BMP280;72318;36.628;-121.932;2024-01-15T06:43:18;101746.06;;;11.05
82638;BMP280;72318;36.628;-121.932;2024-01-15T06:45:44;101747.41;;;10.80
82638;BMP280;72318;36.628;-121.932;2024-01-15T06:48:11;101761.75;;;10.79
82638;BMP280;72318;36.628;-121.932;2024-01-15T06:50:40;101763.22;;;10.76
82638;BMP280;72318;36.628;-121.932;2024-01-15T06:53:06;101754.41;;;10.88
82638;BMP280;72318;36.628;-121.932;2024-01-15T06:55:33;101758.56;;;11.04
82638;BMP280;72318;36.628;-121.932;2024-01-15T06:57:59;101768.44;;;10.88
82638;BMP280;72318;36.628;-121.932;2024-01-15T07:00:25;101764.13;;;10.99
82638;BMP280;72318;36.628;-121.932;2024-01-15T07:02:53;101780.16;;;10.87
82638;BMP280;72318;36.628;-121.932;2024-01-15T07:05:20;101780.13;;;11.03
82638;BMP280;72318;36.628;-121.932;2024-01-15T07:07:47;101777.34;;;10.96
82638;BMP280;72318;36.628;-121.932;2024-01-15T07:10:13;101773.38;;;10.90
82638;BMP280;72318;36.628;-121.932;2024-01-15T07:12:42;101766.88;;;10.87
82638;BMP280;72318;36.628;-121.932;2024-01-15T07:15:09;101757.63;;;10.81
82638;BMP280;72318;36.628;-121.932;2024-01-15T07:17:35;101754.88;;;11.09
82638;BMP280;72318;36.628;-121.932;2024-01-15T07:20:01;101746.16;;;10.93
82638;BMP280;72318;36.628;-121.932;2024-01-15T07:22:27;101743.19;;;10.79
82638;BMP280;72318;36.628;-121.932;2024-01-15T07:24:54;101747.28;;;10.92
82638;BMP280;72318;36.628;-121.932;2024-01-15T07:27:20;101741.72;;;10.97
82638;BMP280;72318;36.628;-121.932;2024-01-15T07:29:46;101748.06;;;10.92
82638;BMP280;72318;36.628;-121.932;2024-01-15T07:32:14;101739.50;;;10.99
82638;BMP280;72318;36.628;-121.932;2024-01-15T07:34:44;101735.28;;;10.98
82638;BMP280;72318;36.628;-121.932;2024-01-15T07:37:10;101722.34;;;10.96
82638;BMP280;72318;36.628;-121.932;2024-01-15T07:39:37;101726.03;;;11.07
82638;BMP280;72318;36.628;-121.932;2024-01-15T07:42:04;101723.84;;;10.94
82638;BMP280;72318;36.628;-121.932;2024-01-15T07:44:30;101735.88;;;11.07
82638;BMP280;72318;36.628;-121.932;2024-01-15T07:46:56;101739.06;;;10.97
82638;BMP280;72318;36.628;-121.932;2024-01-15T07:49:22;101729.81;;;10.91
82638;BMP280;72318;36.628;-121.932;2024-01-15T07:51:49;101737.34;;;10.89
82638;BMP280;72318;36.628;-121.932;2024-01-15T07:54:15;101740.69;;;11.01
82638;BMP280;72318;36.628;-121.932;2024-01-15T07:56:57;101733.56;;;11.05
82638;BMP280;72318;36.628;-121.932;2024-01-15T07:59:24;101728.69;;;11.07
82638;BMP280;72318;36.628;-121.932;2024-01-15T08:01:51;101736.31;;;11.09
82638;BMP280;72318;36.628;-121.932;2024-01-15T08:04:17;101735.03;;;11.03
82638;BMP280;72318;36.628;-121.932;2024-01-15T08:06:44;101732.66;;;10.98
82638;BMP280;72318;36.628;-121.932;2024-01-15T08:09:11;101725.38;;;10.95
82638;BMP280;72318;36.628;-121.932;2024-01-15T08:11:41;101731.50;;;11.14
82638;BMP280;72318;36.628;-121.932;2024-01-15T08:14:09;101733.22;;;11.41
82638;BMP280;72318;36.628;-121.932;2024-01-15T08:16:38;101732.25;;;11.30
82638;BMP280;72318;36.628;-121.932;2024-01-15T08:19:06;101736.91;;;11.18
82638;BMP280;72318;36.628;-121.932;2024-01-15T08:21:32;101733.94;;;11.22
82638;BMP280;72318;36.628;-121.932;2024-01-15T08:23:59;101734.78;;;11.08
82638;BMP280;72318;36.628;-121.932;2024-01-15T08:26:26;101737.53;;;11.11
82638;BMP280;72318;36.628;-121.932;2024-01-15T08:28:52;101737.44;;;11.08
82638;BMP280;72318;36.628;-121.932;2024-01-15T08:31:18;101745.34;;;11.23
82638;BMP280;72318;36.628;-121.932;2024-01-15T08:33:45;101732.78;;;11.20
82638;BMP280;72318;36.628;-121.932;2024-01-15T08:36:12;101751.00;;;11.40
82638;BMP280;72318;36.628;-121.932;2024-01-15T08:38:38;101751.63;;;11.34
82638;BMP280;72318;36.628;-121.932;2024-01-15T08:41:05;101756.41;;;11.44
82638;BMP280;72318;36.628;-121.932;2024-01-15T08:43:31;101767.50;;;11.30
82638;BMP280;72318;36.628;-121.932;2024-01-15T08:45:57;101762.88;;;11.27
82638;BMP280;72318;36.628;-121.932;2024-01-15T08:48:30;101758.78;;;11.30
82638;BMP280;72318;36.628;-121.932;2024-01-15T08:50:56;101760.81;;;11.36
82638;BMP280;72318;36.628;-121.932;2024-01-15T08:53:23;101756.72;;;11.39
82638;BMP280;72318;36.628;-121.932;2024-01-15T08:55:50;101756.28;;;11.56
82638;BMP280;72318;36.628;-121.932;2024-01-15T08:58:16;101758.88;;;11.52
82638;BMP280;72318;36.628;-121.932;2024-01-15T09:00:42;101760.13;;;11.39
82638;BMP280;72318;36.628;-121.932;2024-01-15T09:03:08;101757.19;;;11.44
82638;BMP280;72318;36.628;-121.932;2024-01-15T09:05:35;101753.78;;;11.82
82638;BMP280;72318;36.628;-121.932;2024-01-15T09:08:01;101749.16;;;11.60
82638;BMP280;72318;36.628;-121.932;2024-01-15T09:10:27;101750.63;;;11.38
82638;BMP280;72318;36.628;-121.932;2024-01-15T09:12:53;101753.09;;;11.31
82638;BMP280;72318;36.628;-121.932;2024-01-15T09:15:19;101746.72;;;11.51
82638;BMP280;72318;36.628;-121.932;2024-01-15T09:17:46;101745.03;;;11.24
82638;BMP280;72318;36.628;-121.932;2024-01-15T09:20:12;101742.28;;;11.21
82638;BMP280;72318;36.628;-121.932;2024-01-15T09:22:38;101742.81;;;11.45
82638;BMP280;72318;36.628;-121.932;2024-01-15T09:25:07;101737.09;;;11.09
82638;BMP280;72318;36.628;-121.932;2024-01-15T09:27:35;101749.13;;;11.22
82638;BMP280;72318;36.628;-121.932;2024-01-15T09:30:03;101734.94;;;11.15
82638;BMP280;72318;36.628;-121.932;2024-01-15T09:32:29;101741.59;;;11.24
82638;BMP280;72318;36.628;-121.932;2024-01-15T09:34:55;101728.69;;;11.07
82638;BMP280;72318;36.628;-121.932;2024-01-15T09:37:21;101733.56;;;11.05
82638;BMP280;72318;36.628;-121.932;2024-01-15T09:39:49;101740.72;;;11.20
82638;BMP280;72318;36.628;-121.932;2024-01-15T09:42:16;101742.38;;;11.24
82638;BMP280;72318;36.628;-121.932;2024-01-15T09:44:42;101751.19;;;11.13
82638;BMP280;72318;36.628;-121.932;2024-01-15T09:47:09;101741.19;;;11.07
82638;BMP280;72318;36.628;-121.932;2024-01-15T09:49:35;101744.97;;;11.06
82638;BMP280;72318;36.628;-121.932;2024-01-15T09:52:03;101747.44;;;10.99
82638;BMP280;72318;36.628;-121.932;2024-01-15T09:54:30;101754.13;;;10.93
82638;BMP280;72318;36.628;-121.932;2024-01-15T09:56:56;101747.28;;;10.92
82638;BMP280;72318;36.628;-121.932;2024-01-15T09:59:24;101747.44;;;10.99
82638;BMP280;72318;36.628;-121.932;2024-01-15T10:01:50;101744.38;;;10.97
82638;BMP280;72318;36.628;-121.932;2024-01-15T10:04:17;101737.72;;;10.87
82638;BMP280;72318;36.628;-121.932;2024-01-15T10:06:45;101745.31;;;10.89
82638;BMP280;72318;36.628;-121.932;2024-01-15T10:09:14;101756.13;;;10.96
82638;BMP280;72318;36.628;-121.932;2024-01-15T10:11:42;101746.25;;;10.81
82638;BMP280;72318;36.628;-121.932;2024-01-15T10:14:12;101743.28;;;10.82
82638;BMP280;72318;36.628;-121.932;2024-01-15T10:16:42;101744.63;;;10.76
82638;BMP280;72318;36.628;-121.932;2024-01-15T10:19:08;101752.69;;;10.80
82638;BMP280;72318;36.628;-121.932;2024-01-15T10:21:35;101743.03;;;10.72
82638;BMP280;72318;36.628;-121.932;2024-01-15T10:24:02;101737.91;;;10.63
82638;BMP280;72318;36.628;-121.932;2024-01-15T10:26:29;101732.94;;;10.62
82638;BMP280;72318;36.628;-121.932;2024-01-15T10:28:55;101722.59;;;10.72
82638;BMP280;72318;36.628;-121.932;2024-01-15T10:31:22;101727.63;;;10.62
82638;BMP280;72318;36.628;-121.932;2024-01-15T10:33:48;101738.22;;;10.62
82638;BMP280;72318;36.628;-121.932;2024-01-15T10:36:16;101726.53;;;10.47
82638;BMP280;72318;36.628;-121.932;2024-01-15T10:38:46;101725.66;;;10.59
82638;BMP280;72318;36.628;-121.932;2024-01-15T10:41:13;101731.22;;;10.54
82638;BMP280;72318;36.628;-121.932;2024-01-15T10:43:39;101731.28;;;10.42
82638;BMP280;72318;36.628;-121.932;2024-01-15T10:46:08;101730.72;;;10.48
82638;BMP280;72318;36.628;-121.932;2024-01-15T10:48:36;101703.00;;;10.46
82638;BMP280;72318;36.628;-121.932;2024-01-15T10:51:02;101702.81;;;10.39
82638;BMP280;72318;36.628;-121.932;2024-01-15T10:53:38;101706.50;;;10.50
82638;BMP280;72318;36.628;-121.932;2024-01-15T10:56:06;101705.94;;;10.41
82638;BMP280;72318;36.628;-121.932;2024-01-15T10:58:34;101696.66;;;10.35
82638;BMP280;72318;36.628;-121.932;2024-01-15T11:01:02;101694.25;;;10.30
82638;BMP280;72318;36.628;-121.932;2024-01-15T11:03:29;101708.34;;;10.03
82638;BMP280;72318;36.628;-121.932;2024-01-15T11:05:55;101710.03;;;10.11
82638;BMP280;72318;36.628;-121.932;2024-01-15T11:08:21;101708.16;;;10.11
82638;BMP280;72318;36.628;-121.932;2024-01-15T11:10:51;101704.28;;;10.21
82638;BMP280;72318;36.628;-121.932;2024-01-15T11:13:20;101710.03;;;10.11
82638;BMP280;72318;36.628;-121.932;2024-01-15T11:16:10;101705.81;;;9.95
82638;BMP280;72318;36.628;-121.932;2024-01-15T11:18:37;101695.81;;;9.88
82638;BMP280;72318;36.628;-121.932;2024-01-15T11:29:10;101676.91;;;9.74
82638;BMP280;72318;36.628;-121.932;2024-01-15T11:34:07;101668.97;;;9.74
82638;BMP280;72318;36.628;-121.932;2024-01-15T11:42:00;101681.50;;;9.50
82638;BMP280;72318;36.628;-121.932;2024-01-15T11:44:27;101688.91;;;9.56
82638;BMP280;72318;36.628;-121.932;2024-01-15T11:47:03;101670.97;;;9.65
82638;BMP280;72318;36.628;-121.932;2024-01-15T11:52:38;101665.13;;;9.32
82638;BMP280;72318;36.628;-121.932;2024-01-15T11:55:17;101665.44;;;9.43
82638;BMP280;72318;36.628;-121.932;2024-01-15T11:57:47;101651.25;;;9.23
82638;BMP280;72318;36.628;-121.932;2024-01-15T12:00:15;101661.16;;;9.26
82638;BMP280;72318;36.628;-121.932;2024-01-15T12:02:43;101666.25;;;9.31
82638;BMP280;72318;36.628;-121.932;2024-01-15T12:05:10;101673.94;;;9.24
82638;BMP280;72318;36.628;-121.932;2024-01-15T12:07:40;101657.78;;;9.26
82638;BMP280;72318;36.628;-121.932;2024-01-15T12:10:17;101654.13;;;9.30
82638;BMP280;72318;36.628;-121.932;2024-01-15T12:15:15;101663.13;;;9.41
82638;BMP280;72318;36.628;-121.932;2024-01-15T12:17:42;101668.75;;;9.40
82638;BMP280;72318;36.628;-121.932;2024-01-15T12:20:08;101675.28;;;9.30
82638;BMP280;72318;36.628;-121.932;2024-01-15T12:22:35;101679.22;;;9.48
82638;BMP280;72318;36.628;-121.932;2024-01-15T12:25:02;101676.41;;;9.29
82638;BMP280;72318;36.628;-121.932;2024-01-15T12:27:28;101683.94;;;9.55
82638;BMP280;72318;36.628;-121.932;2024-01-15T12:29:54;101683.50;;;9.53
82638;BMP280;72318;36.628;-121.932;2024-01-15T12:32:21;101681.50;;;9.50
82638;BMP280;72318;36.628;-121.932;2024-01-15T12:34:50;101676.66;;;9.52
82638;BMP280;72318;36.628;-121.932;2024-01-15T12:37:19;101681.50;;;9.50
82638;BMP280;72318;36.628;-121.932;2024-01-15T12:39:46;101684.69;;;9.55
82638;BMP280;72318;36.628;-121.932;2024-01-15T12:42:16;101683.94;;;9.82
82638;BMP280;72318;36.628;-121.932;2024-01-15T12:44:44;101677.13;;;9.69
82638;BMP280;72318;36.628;-121.932;2024-01-15T12:47:11;101692.16;;;9.65
82638;BMP280;72318;36.628;-121.932;2024-01-15T12:49:38;101691.00;;;9.78
82638;BMP280;72318;36.628;-121.932;2024-01-15T12:52:09;101684.84;;;9.74
82638;BMP280;72318;36.628;-121.932;2024-01-15T12:54:35;101682.00;;;9.67
82638;BMP280;72318;36.628;-121.932;2024-01-15T12:57:01;101676.72;;;9.67
82638;BMP280;72318;36.628;-121.932;2024-01-15T12:59:28;101679.16;;;9.60
82638;BMP280;72318;36.628;-121.932;2024-01-15T13:01:55;101679.84;;;9.57
82638;BMP280;72318;36.628;-121.932;2024-01-15T13:04:24;101683.88;;;9.67
82638;BMP280;72318;36.628;-121.932;2024-01-15T13:06:51;101678.69;;;9.70
82638;BMP280;72318;36.628;-121.932;2024-01-15T13:09:17;101697.22;;;9.70
82638;BMP280;72318;36.628;-121.932;2024-01-15T13:11:47;101685.25;;;9.61
82638;BMP280;72318;36.628;-121.932;2024-01-15T13:14:13;101691.44;;;9.80
82638;BMP280;72318;36.628;-121.932;2024-01-15T13:16:40;101685.41;;;9.68
82638;BMP280;72318;36.628;-121.932;2024-01-15T13:19:10;101674.53;;;9.85
82638;BMP280;72318;36.628;-121.932;2024-01-15T13:21:41;101675.88;;;9.79
82638;BMP280;72318;36.628;-121.932;2024-01-15T13:24:08;101680.34;;;9.75
82638;BMP280;72318;36.628;-121.932;2024-01-15T13:26:35;101683.00;;;9.90
82638;BMP280;72318;36.628;-121.932;2024-01-15T13:29:04;101678.22;;;9.96
82638;BMP280;72318;36.628;-121.932;2024-01-15T13:31:31;101676.38;;;9.96
82638;BMP280;72318;36.628;-121.932;2024-01-15T13:33:57;101673.50;;;9.74
82638;BMP280;72318;36.628;-121.932;2024-01-15T13:36:24;101684.16;;;9.77
82638;BMP280;72318;36.628;-121.932;2024-01-15T13:38:51;101671.56;;;9.86
82638;BMP280;72318;36.628;-121.932;2024-01-15T13:41:19;101674.94;;;9.71
82638;BMP280;72318;36.628;-121.932;2024-01-15T13:43:50;101677.06;;;9.66
82638;BMP280;72318;36.628;-121.932;2024-01-15T13:46:19;101666.84;;;9.52